createdAt,value
2019-01-29T00:00:27.388Z,0
2019-01-29T00:01:07.952Z,0
2019-01-29T00:01:48.510Z,0
2019-01-29T00:02:29.070Z,0
2019-01-29T00:03:09.630Z,0
2019-01-29T00:03:50.191Z,0
2019-01-29T00:04:30.750Z,0
2019-01-29T00:05:11.309Z,0
2019-01-29T00:05:51.952Z,0
2019-01-29T00:06:32.443Z,0
2019-01-29T00:07:13.023Z,0
2019-01-29T00:07:53.588Z,0
2019-01-29T00:08:34.143Z,0
2019-01-29T00:09:14.711Z,0
2019-01-29T00:09:55.271Z,0
2019-01-29T00:10:35.815Z,0
2019-01-29T00:11:16.376Z,0
2019-01-29T00:11:57.001Z,0
2019-01-29T00:12:37.536Z,0
2019-01-29T00:13:18.108Z,0
2019-01-29T00:13:58.675Z,0
2019-01-29T00:14:39.245Z,0
2019-01-29T00:15:19.801Z,0
2019-01-29T00:16:00.368Z,0
2019-01-29T00:16:40.933Z,0
2019-01-29T00:17:21.484Z,0
2019-01-29T00:18:02.055Z,0
2019-01-29T00:18:42.618Z,0
2019-01-29T00:19:23.179Z,0
2019-01-29T00:20:03.736Z,0
2019-01-29T00:20:44.286Z,0
2019-01-29T00:21:24.846Z,0
2019-01-29T00:22:05.402Z,0
2019-01-29T00:22:45.967Z,0
2019-01-29T00:23:26.517Z,0
2019-01-29T00:24:07.081Z,0
2019-01-29T00:24:47.636Z,0
2019-01-29T00:25:28.197Z,0
2019-01-29T00:26:08.759Z,0
2019-01-29T00:26:49.324Z,0
2019-01-29T00:27:29.899Z,0
2019-01-29T00:28:10.444Z,0
2019-01-29T00:28:51.010Z,0
2019-01-29T00:29:31.560Z,0
2019-01-29T00:30:12.136Z,0
2019-01-29T00:30:52.699Z,0
2019-01-29T00:31:33.266Z,0
2019-01-29T00:32:13.832Z,0
2019-01-29T00:32:54.403Z,0
2019-01-29T00:33:34.952Z,0
2019-01-29T00:34:15.516Z,0
2019-01-29T00:34:56.072Z,0
2019-01-29T00:35:36.624Z,0
2019-01-29T00:36:17.189Z,0
2019-01-29T00:36:57.773Z,0
2019-01-29T00:37:38.357Z,0
2019-01-29T00:38:18.933Z,0
2019-01-29T00:38:59.493Z,0
2019-01-29T00:39:40.039Z,0
2019-01-29T00:40:20.686Z,0
2019-01-29T00:41:01.246Z,0
2019-01-29T00:41:41.795Z,0
2019-01-29T00:42:22.351Z,0
2019-01-29T00:43:02.912Z,0
2019-01-29T00:43:43.473Z,0
2019-01-29T00:44:24.085Z,0
2019-01-29T00:45:04.656Z,0
2019-01-29T00:45:45.252Z,0
2019-01-29T00:46:25.810Z,0
2019-01-29T00:47:06.364Z,0
2019-01-29T00:47:46.920Z,0
2019-01-29T00:48:27.480Z,0
2019-01-29T00:49:08.040Z,0
2019-01-29T00:49:48.615Z,0
2019-01-29T00:50:29.185Z,0
2019-01-29T00:51:09.751Z,0
2019-01-29T00:51:50.324Z,0
2019-01-29T00:52:30.885Z,0
2019-01-29T00:53:11.448Z,0
2019-01-29T00:53:52.013Z,0
2019-01-29T00:54:32.578Z,0
2019-01-29T00:55:13.144Z,0
2019-01-29T00:55:53.709Z,0
2019-01-29T00:56:34.275Z,0
2019-01-29T00:57:14.836Z,0
2019-01-29T00:57:55.385Z,0
2019-01-29T00:58:35.939Z,0
2019-01-29T00:59:16.522Z,0
2019-01-29T00:59:57.081Z,0
2019-01-29T01:00:37.626Z,0
2019-01-29T01:01:18.201Z,0
2019-01-29T01:01:58.779Z,0
2019-01-29T01:02:39.382Z,0
2019-01-29T01:03:19.994Z,0
2019-01-29T01:04:00.571Z,0
2019-01-29T01:04:41.124Z,0
2019-01-29T01:05:21.679Z,0
2019-01-29T01:06:02.242Z,0
2019-01-29T01:06:42.814Z,0
2019-01-29T01:07:23.381Z,0
2019-01-29T01:08:03.952Z,0
2019-01-29T01:08:44.530Z,0
2019-01-29T01:09:25.089Z,0
2019-01-29T01:10:05.639Z,0
2019-01-29T01:10:46.208Z,0
2019-01-29T01:11:26.762Z,0
2019-01-29T01:12:07.323Z,0
2019-01-29T01:12:47.865Z,0
2019-01-29T01:13:28.426Z,0
2019-01-29T01:14:09.010Z,0
2019-01-29T01:14:49.579Z,0
2019-01-29T01:15:30.133Z,0
2019-01-29T01:16:10.692Z,0
2019-01-29T01:16:51.271Z,0
2019-01-29T01:17:31.829Z,0
2019-01-29T01:18:12.377Z,0
2019-01-29T01:18:52.948Z,0
2019-01-29T01:19:33.516Z,0
2019-01-29T01:20:14.073Z,0
2019-01-29T01:20:54.656Z,0
2019-01-29T01:21:35.203Z,0
2019-01-29T01:22:15.758Z,0
2019-01-29T01:22:56.341Z,0
2019-01-29T01:23:36.920Z,0
2019-01-29T01:24:17.480Z,0
2019-01-29T01:24:58.038Z,0
2019-01-29T01:25:38.616Z,0
2019-01-29T01:26:19.190Z,0
2019-01-29T01:26:59.738Z,0
2019-01-29T01:27:40.293Z,0
2019-01-29T01:28:20.870Z,0
2019-01-29T01:29:01.470Z,0
2019-01-29T01:29:42.021Z,0
2019-01-29T01:30:22.596Z,0
2019-01-29T01:31:03.149Z,0
2019-01-29T01:31:43.695Z,0
2019-01-29T01:32:24.247Z,0
2019-01-29T01:33:04.867Z,0
2019-01-29T01:33:45.393Z,0
2019-01-29T01:34:25.964Z,0
2019-01-29T01:35:06.519Z,0
2019-01-29T01:35:47.069Z,0
2019-01-29T01:36:27.634Z,0
2019-01-29T01:37:08.171Z,0
2019-01-29T01:37:48.751Z,0
2019-01-29T01:38:29.301Z,0
2019-01-29T01:39:09.879Z,0
2019-01-29T01:39:50.423Z,0
2019-01-29T01:40:30.975Z,0
2019-01-29T01:41:11.526Z,0
2019-01-29T01:41:52.102Z,0
2019-01-29T01:42:32.665Z,0
2019-01-29T01:43:13.238Z,0
2019-01-29T01:43:53.849Z,0
2019-01-29T01:44:34.355Z,0
2019-01-29T01:45:14.913Z,0
2019-01-29T01:45:55.455Z,0
2019-01-29T01:46:36.019Z,0
2019-01-29T01:47:16.578Z,0
2019-01-29T01:47:57.131Z,0
2019-01-29T01:48:37.685Z,0
2019-01-29T01:49:18.235Z,0
2019-01-29T01:49:58.790Z,0
2019-01-29T01:50:39.340Z,0
2019-01-29T01:51:19.903Z,0
2019-01-29T01:52:00.463Z,0
2019-01-29T01:52:41.039Z,0
2019-01-29T01:53:21.604Z,0
2019-01-29T01:54:02.183Z,0
2019-01-29T01:54:42.743Z,0
2019-01-29T01:55:23.309Z,0
2019-01-29T01:56:03.864Z,0
2019-01-29T01:56:44.412Z,0
2019-01-29T01:57:24.973Z,0
2019-01-29T01:58:05.550Z,0
2019-01-29T01:58:46.108Z,0
2019-01-29T01:59:26.685Z,0
2019-01-29T02:00:07.244Z,0
2019-01-29T02:00:47.807Z,0
2019-01-29T02:01:28.367Z,0
2019-01-29T02:02:08.910Z,0
2019-01-29T02:02:49.477Z,0
2019-01-29T02:03:30.031Z,0
2019-01-29T02:04:10.592Z,0
2019-01-29T02:04:51.172Z,0
2019-01-29T02:05:31.731Z,0
2019-01-29T02:06:12.283Z,0
2019-01-29T02:06:52.850Z,0
2019-01-29T02:07:33.405Z,0
2019-01-29T02:08:13.955Z,0
2019-01-29T02:08:54.498Z,0
2019-01-29T02:09:35.065Z,0
2019-01-29T02:10:15.615Z,0
2019-01-29T02:10:56.177Z,0
2019-01-29T02:11:36.753Z,0
2019-01-29T02:12:17.321Z,0
2019-01-29T02:12:57.876Z,0
2019-01-29T02:13:38.435Z,0
2019-01-29T02:14:18.987Z,0
2019-01-29T02:14:59.572Z,0
2019-01-29T02:15:40.122Z,0
2019-01-29T02:16:20.719Z,0
2019-01-29T02:17:01.291Z,0
2019-01-29T02:17:41.872Z,0
2019-01-29T02:18:22.460Z,0
2019-01-29T02:19:03.034Z,0
2019-01-29T02:19:43.607Z,0
2019-01-29T02:20:24.183Z,0
2019-01-29T02:21:04.737Z,0
2019-01-29T02:21:45.305Z,0
2019-01-29T02:22:25.892Z,0
2019-01-29T02:23:07.956Z,0
2019-01-29T02:23:47.095Z,0
2019-01-29T02:24:27.661Z,0
2019-01-29T02:25:08.214Z,0
2019-01-29T02:25:48.764Z,0
2019-01-29T02:26:29.335Z,0
2019-01-29T02:27:09.911Z,0
2019-01-29T02:27:50.448Z,0
2019-01-29T02:28:31.031Z,0
2019-01-29T02:29:11.595Z,0
2019-01-29T02:29:52.155Z,0
2019-01-29T02:30:32.720Z,0
2019-01-29T02:31:13.282Z,0
2019-01-29T02:31:53.863Z,0
2019-01-29T02:32:34.422Z,0
2019-01-29T02:33:14.963Z,0
2019-01-29T02:33:55.515Z,0
2019-01-29T02:34:36.092Z,0
2019-01-29T02:35:16.679Z,0
2019-01-29T02:35:57.231Z,0
2019-01-29T02:36:37.796Z,0
2019-01-29T02:37:18.363Z,0
2019-01-29T02:37:58.967Z,0
2019-01-29T02:38:39.526Z,0
2019-01-29T02:39:20.082Z,0
2019-01-29T02:40:00.641Z,0
2019-01-29T02:40:41.214Z,0
2019-01-29T02:41:21.771Z,0
2019-01-29T02:42:02.325Z,0
2019-01-29T02:42:42.877Z,0
2019-01-29T02:43:23.423Z,0
2019-01-29T02:44:03.987Z,0
2019-01-29T02:44:44.543Z,0
2019-01-29T02:45:25.116Z,0
2019-01-29T02:46:05.676Z,0
2019-01-29T02:46:46.240Z,0
2019-01-29T02:47:26.818Z,0
2019-01-29T02:48:07.374Z,0
2019-01-29T02:48:47.932Z,0
2019-01-29T02:49:28.490Z,0
2019-01-29T02:50:09.050Z,0
2019-01-29T02:50:49.647Z,0
2019-01-29T02:51:30.209Z,0
2019-01-29T02:52:10.759Z,0
2019-01-29T02:52:51.318Z,0
2019-01-29T02:53:31.869Z,0
2019-01-29T02:54:12.443Z,0
2019-01-29T02:54:52.998Z,0
2019-01-29T02:55:33.554Z,0
2019-01-29T02:56:14.105Z,0
2019-01-29T02:56:54.676Z,0
2019-01-29T02:57:35.232Z,0
2019-01-29T03:03:37.602Z,0
2019-01-29T03:04:18.155Z,0
2019-01-29T03:04:58.698Z,0
2019-01-29T03:05:39.261Z,0
2019-01-29T03:06:19.796Z,0
2019-01-29T03:07:00.354Z,0
2019-01-29T03:07:40.896Z,0
2019-01-29T03:08:21.441Z,0
2019-01-29T03:09:02.003Z,0
2019-01-29T03:09:42.567Z,0
2019-01-29T03:10:23.137Z,0
2019-01-29T03:11:03.707Z,0
2019-01-29T03:11:44.255Z,0
2019-01-29T03:12:24.816Z,0
2019-01-29T03:13:05.373Z,0
2019-01-29T03:13:45.933Z,0
2019-01-29T03:14:26.514Z,0
2019-01-29T03:15:07.052Z,0
2019-01-29T03:15:47.625Z,0
2019-01-29T03:16:28.180Z,0
2019-01-29T03:17:08.740Z,0
2019-01-29T03:17:49.297Z,0
2019-01-29T03:18:29.869Z,0
2019-01-29T03:19:10.448Z,0
2019-01-29T03:19:50.996Z,0
2019-01-29T03:20:31.543Z,0
2019-01-29T03:21:12.104Z,0
2019-01-29T03:21:52.666Z,0
2019-01-29T03:22:33.234Z,0
2019-01-29T03:23:13.801Z,0
2019-01-29T03:23:54.355Z,0
2019-01-29T03:24:34.905Z,0
2019-01-29T03:25:15.473Z,0
2019-01-29T03:25:56.031Z,0
2019-01-29T03:26:36.588Z,0
2019-01-29T03:27:17.143Z,0
2019-01-29T03:27:57.695Z,0
2019-01-29T03:28:38.271Z,0
2019-01-29T03:29:18.814Z,0
2019-01-29T03:29:59.409Z,0
2019-01-29T03:30:39.988Z,0
2019-01-29T03:31:20.555Z,0
2019-01-29T03:32:01.121Z,0
2019-01-29T03:32:41.660Z,0
2019-01-29T03:33:22.223Z,0
2019-01-29T03:34:02.804Z,0
2019-01-29T03:34:43.363Z,0
2019-01-29T03:35:23.909Z,0
2019-01-29T03:36:04.498Z,0
2019-01-29T03:36:45.045Z,0
2019-01-29T03:37:25.615Z,0
2019-01-29T03:38:06.184Z,0
2019-01-29T03:38:46.745Z,0
2019-01-29T03:39:27.298Z,0
2019-01-29T03:40:07.857Z,0
2019-01-29T03:40:48.409Z,0
2019-01-29T03:41:28.984Z,0
2019-01-29T03:42:09.538Z,0
2019-01-29T03:42:50.101Z,0
2019-01-29T03:43:30.683Z,0
2019-01-29T03:44:11.235Z,0
2019-01-29T03:44:51.788Z,0
2019-01-29T03:45:32.344Z,0
2019-01-29T03:46:12.899Z,0
2019-01-29T03:46:53.460Z,0
2019-01-29T03:47:34.014Z,0
2019-01-29T03:48:14.815Z,0
2019-01-29T03:48:55.379Z,0
2019-01-29T03:49:35.955Z,0
2019-01-29T03:50:16.523Z,0
2019-01-29T03:50:57.075Z,0
2019-01-29T03:51:37.629Z,0
2019-01-29T03:52:18.212Z,0
2019-01-29T03:52:58.800Z,0
2019-01-29T03:53:39.350Z,0
2019-01-29T03:54:19.901Z,0
2019-01-29T03:55:00.446Z,0
2019-01-29T03:55:41.023Z,0
2019-01-29T03:56:21.581Z,0
2019-01-29T03:57:02.142Z,0
2019-01-29T03:57:42.697Z,0
2019-01-29T03:58:23.304Z,0
2019-01-29T03:59:03.853Z,0
2019-01-29T03:59:44.405Z,0
2019-01-29T04:00:24.978Z,0
2019-01-29T04:01:05.540Z,0
2019-01-29T04:01:46.090Z,0
2019-01-29T04:02:26.684Z,0
2019-01-29T04:03:07.238Z,0
2019-01-29T04:03:47.795Z,0
2019-01-29T04:04:28.356Z,0
2019-01-29T04:05:08.907Z,0
2019-01-29T04:05:49.484Z,0
2019-01-29T04:06:30.037Z,0
2019-01-29T04:07:10.596Z,0
2019-01-29T04:07:51.158Z,0
2019-01-29T04:08:31.723Z,0
2019-01-29T04:09:12.310Z,0
2019-01-29T04:09:52.877Z,0
2019-01-29T04:10:33.441Z,0
2019-01-29T04:11:14.010Z,0
2019-01-29T04:11:54.562Z,0
2019-01-29T04:12:35.131Z,0
2019-01-29T04:13:15.699Z,0
2019-01-29T04:13:56.263Z,0
2019-01-29T04:14:36.835Z,0
2019-01-29T04:15:17.390Z,0
2019-01-29T04:15:57.967Z,0
2019-01-29T04:16:38.528Z,0
2019-01-29T04:17:19.094Z,0
2019-01-29T04:17:59.644Z,0
2019-01-29T04:18:40.210Z,0
2019-01-29T04:19:20.760Z,0
2019-01-29T04:20:01.320Z,0
2019-01-29T04:20:41.956Z,0
2019-01-29T04:21:22.491Z,0
2019-01-29T04:22:03.081Z,0
2019-01-29T04:22:45.647Z,0
2019-01-29T04:23:24.213Z,0
2019-01-29T04:24:04.780Z,0
2019-01-29T04:24:45.321Z,0
2019-01-29T04:25:25.891Z,0
2019-01-29T04:26:06.459Z,0
2019-01-29T04:26:47.025Z,0
2019-01-29T04:27:27.586Z,0
2019-01-29T04:28:08.147Z,0
2019-01-29T04:28:48.712Z,0
2019-01-29T04:29:29.263Z,0
2019-01-29T04:30:09.823Z,0
2019-01-29T04:30:50.406Z,0
2019-01-29T04:31:31.038Z,0
2019-01-29T04:32:11.615Z,0
2019-01-29T04:32:52.182Z,0
2019-01-29T04:33:32.739Z,0
2019-01-29T04:34:13.301Z,0
2019-01-29T04:34:53.853Z,0
2019-01-29T04:35:34.412Z,0
2019-01-29T04:36:14.978Z,0
2019-01-29T04:36:55.528Z,0
2019-01-29T04:37:36.100Z,0
2019-01-29T04:38:16.664Z,0
2019-01-29T04:38:57.269Z,0
2019-01-29T04:39:37.820Z,0
2019-01-29T04:40:18.372Z,0
2019-01-29T04:40:58.932Z,0
2019-01-29T04:41:39.503Z,0
2019-01-29T04:42:20.060Z,0
2019-01-29T04:43:00.622Z,0
2019-01-29T04:43:41.195Z,0
2019-01-29T04:44:21.750Z,0
2019-01-29T04:45:02.319Z,0
2019-01-29T04:45:42.889Z,0
2019-01-29T04:46:23.439Z,0
2019-01-29T04:47:03.991Z,0
2019-01-29T04:47:44.579Z,0
2019-01-29T04:48:25.135Z,0
2019-01-29T04:49:05.678Z,0
2019-01-29T04:49:46.229Z,0
2019-01-29T04:50:26.791Z,0
2019-01-29T04:51:07.340Z,0
2019-01-29T04:51:47.908Z,0
2019-01-29T04:52:28.472Z,0
2019-01-29T04:53:09.020Z,0
2019-01-29T04:53:57.048Z,0
2019-01-29T04:54:30.132Z,0
2019-01-29T04:55:10.686Z,0
2019-01-29T04:55:51.290Z,0
2019-01-29T04:56:31.838Z,0
2019-01-29T04:57:12.398Z,0
2019-01-29T04:57:52.971Z,0
2019-01-29T04:58:33.535Z,0
2019-01-29T04:59:14.089Z,0
2019-01-29T04:59:54.662Z,0
2019-01-29T05:00:35.216Z,0
2019-01-29T05:01:15.764Z,0
2019-01-29T05:01:56.334Z,0
2019-01-29T05:02:36.921Z,0
2019-01-29T05:03:17.446Z,0
2019-01-29T05:03:57.997Z,0
2019-01-29T05:04:38.543Z,0
2019-01-29T05:05:19.103Z,0
2019-01-29T05:05:59.662Z,0
2019-01-29T05:06:40.224Z,0
2019-01-29T05:07:20.794Z,0
2019-01-29T05:08:01.348Z,0
2019-01-29T05:08:41.912Z,0
2019-01-29T05:09:22.561Z,0
2019-01-29T05:10:03.232Z,0
2019-01-29T05:10:43.795Z,0
2019-01-29T05:11:24.350Z,0
2019-01-29T05:12:04.886Z,0
2019-01-29T05:12:45.456Z,0
2019-01-29T05:13:26.018Z,0
2019-01-29T05:14:06.571Z,0
2019-01-29T05:14:47.119Z,0
2019-01-29T05:15:27.688Z,0
2019-01-29T05:16:08.270Z,0
2019-01-29T05:16:48.826Z,0
2019-01-29T05:17:29.378Z,0
2019-01-29T05:18:09.944Z,0
2019-01-29T05:18:50.508Z,0
2019-01-29T05:19:31.077Z,0
2019-01-29T05:20:11.630Z,0
2019-01-29T05:20:52.185Z,0
2019-01-29T05:21:32.760Z,0
2019-01-29T05:22:13.292Z,0
2019-01-29T05:22:53.874Z,0
2019-01-29T05:23:34.425Z,0
2019-01-29T05:24:14.990Z,0
2019-01-29T05:24:55.552Z,0
2019-01-29T05:25:36.109Z,0
2019-01-29T05:26:16.674Z,0
2019-01-29T05:26:57.232Z,0
2019-01-29T05:27:37.788Z,0
2019-01-29T05:28:18.345Z,0
2019-01-29T05:28:58.915Z,0
2019-01-29T05:29:39.464Z,0
2019-01-29T05:30:20.649Z,0
2019-01-29T05:31:00.565Z,0
2019-01-29T05:31:41.118Z,0
2019-01-29T05:32:21.691Z,0
2019-01-29T05:33:02.253Z,0
2019-01-29T05:33:42.818Z,0
2019-01-29T05:34:23.370Z,0
2019-01-29T05:35:03.985Z,0
2019-01-29T05:35:44.556Z,0
2019-01-29T05:36:25.104Z,0
2019-01-29T05:37:05.657Z,0
2019-01-29T05:37:46.231Z,0
2019-01-29T05:38:26.775Z,0
2019-01-29T05:39:07.329Z,0
2019-01-29T05:39:47.881Z,0
2019-01-29T05:40:28.431Z,0
2019-01-29T05:41:09.014Z,0
2019-01-29T05:41:49.569Z,0
2019-01-29T05:42:30.150Z,0
2019-01-29T05:43:10.699Z,0
2019-01-29T05:43:51.250Z,0
2019-01-29T05:44:31.811Z,0
2019-01-29T05:45:12.370Z,0
2019-01-29T05:45:52.922Z,0
2019-01-29T05:46:33.484Z,0
2019-01-29T05:47:14.060Z,0
2019-01-29T05:47:54.622Z,0
2019-01-29T05:48:35.169Z,0
2019-01-29T05:49:15.720Z,0
2019-01-29T05:49:56.383Z,0
2019-01-29T05:50:36.966Z,0
2019-01-29T05:51:18.406Z,0
2019-01-29T05:51:58.977Z,0
2019-01-29T05:52:39.541Z,0
2019-01-29T05:53:20.108Z,0
2019-01-29T05:54:00.673Z,0
2019-01-29T05:54:41.240Z,0
2019-01-29T05:55:21.790Z,0
2019-01-29T05:56:02.366Z,0
2019-01-29T05:56:42.950Z,0
2019-01-29T05:57:23.512Z,0
2019-01-29T05:58:04.089Z,0
2019-01-29T05:58:44.649Z,0
2019-01-29T05:59:25.235Z,0
2019-01-29T06:00:05.864Z,0
2019-01-29T06:00:46.370Z,0
2019-01-29T06:01:26.938Z,0
2019-01-29T06:02:07.489Z,0
2019-01-29T06:02:48.565Z,0
2019-01-29T06:03:28.621Z,0
2019-01-29T06:04:09.187Z,0
2019-01-29T06:04:49.757Z,0
2019-01-29T06:05:30.316Z,0
2019-01-29T06:06:10.875Z,0
2019-01-29T06:06:51.431Z,0
2019-01-29T06:07:31.984Z,0
2019-01-29T06:08:12.574Z,0
2019-01-29T06:08:53.149Z,0
2019-01-29T06:09:33.739Z,0
2019-01-29T06:10:14.305Z,0
2019-01-29T06:10:54.857Z,0
2019-01-29T06:11:35.419Z,0
2019-01-29T06:12:15.982Z,0
2019-01-29T06:12:56.541Z,0
2019-01-29T06:13:37.116Z,0
2019-01-29T06:14:17.663Z,4
2019-01-29T06:14:58.221Z,4
2019-01-29T06:15:38.789Z,4
2019-01-29T06:16:19.353Z,4
2019-01-29T06:16:59.899Z,4
2019-01-29T06:17:40.472Z,4
2019-01-29T06:18:21.045Z,0
2019-01-29T06:19:01.678Z,0
2019-01-29T06:19:42.190Z,4
2019-01-29T06:20:22.753Z,4
2019-01-29T06:21:03.340Z,4
2019-01-29T06:21:43.881Z,4
2019-01-29T06:22:24.454Z,4
2019-01-29T06:23:05.005Z,4
2019-01-29T06:23:45.564Z,4
2019-01-29T06:24:26.235Z,4
2019-01-29T06:25:06.657Z,4
2019-01-29T06:25:47.234Z,8
2019-01-29T06:26:27.797Z,8
2019-01-29T06:27:08.350Z,8
2019-01-29T06:27:48.892Z,8
2019-01-29T06:28:29.538Z,12
2019-01-29T06:29:10.160Z,12
2019-01-29T06:29:50.773Z,12
2019-01-29T06:30:31.350Z,12
2019-01-29T06:31:11.927Z,12
2019-01-29T06:31:52.705Z,16
2019-01-29T06:32:33.337Z,16
2019-01-29T06:33:13.895Z,20
2019-01-29T06:33:54.535Z,20
2019-01-29T06:34:35.263Z,20
2019-01-29T06:35:15.818Z,24
2019-01-29T06:35:56.447Z,28
2019-01-29T06:36:37.004Z,28
2019-01-29T06:37:17.598Z,28
2019-01-29T06:37:58.151Z,32
2019-01-29T06:38:38.737Z,32
2019-01-29T06:39:19.285Z,36
2019-01-29T06:39:59.859Z,40
2019-01-29T06:40:40.449Z,40
2019-01-29T06:41:21.013Z,48
2019-01-29T06:42:01.575Z,52
2019-01-29T06:42:42.133Z,52
2019-01-29T06:43:22.685Z,52
2019-01-29T06:44:03.279Z,56
2019-01-29T06:44:43.914Z,64
2019-01-29T06:45:24.508Z,68
2019-01-29T06:46:05.059Z,68
2019-01-29T06:46:45.606Z,76
2019-01-29T06:47:26.162Z,76
2019-01-29T06:48:06.895Z,84
2019-01-29T06:48:47.460Z,88
2019-01-29T06:49:28.031Z,92
2019-01-29T06:50:08.636Z,96
2019-01-29T06:50:49.223Z,104
2019-01-29T06:51:29.782Z,108
2019-01-29T06:52:10.386Z,112
2019-01-29T06:52:50.959Z,112
2019-01-29T06:53:31.535Z,120
2019-01-29T06:54:12.092Z,136
2019-01-29T06:54:52.639Z,148
2019-01-29T06:55:33.203Z,160
2019-01-29T06:56:13.758Z,164
2019-01-29T06:56:54.316Z,148
2019-01-29T06:57:34.914Z,148
2019-01-29T06:58:15.470Z,164
2019-01-29T06:58:56.020Z,164
2019-01-29T06:59:36.623Z,144
2019-01-29T07:00:17.208Z,124
2019-01-29T07:00:57.767Z,140
2019-01-29T07:01:38.353Z,168
2019-01-29T07:02:18.912Z,168
2019-01-29T07:02:59.490Z,160
2019-01-29T07:03:40.067Z,168
2019-01-29T07:04:20.817Z,144
2019-01-29T07:05:01.360Z,132
2019-01-29T07:05:42.941Z,116
2019-01-29T07:06:23.676Z,120
2019-01-29T07:07:04.248Z,124
2019-01-29T07:07:44.807Z,140
2019-01-29T07:08:25.459Z,144
2019-01-29T07:09:06.133Z,140
2019-01-29T07:09:46.767Z,152
2019-01-29T07:10:27.393Z,164
2019-01-29T07:11:07.964Z,180
2019-01-29T07:11:48.517Z,188
2019-01-29T07:12:30.430Z,168
2019-01-29T07:13:10.556Z,148
2019-01-29T07:13:51.681Z,124
2019-01-29T07:14:32.773Z,132
2019-01-29T07:15:13.425Z,132
2019-01-29T07:15:54.001Z,128
2019-01-29T07:16:34.559Z,124
2019-01-29T07:17:15.118Z,120
2019-01-29T07:17:55.695Z,124
2019-01-29T07:18:36.262Z,132
2019-01-29T07:19:16.831Z,140
2019-01-29T07:19:57.380Z,144
2019-01-29T07:20:37.933Z,164
2019-01-29T07:21:18.522Z,168
2019-01-29T07:21:59.070Z,184
2019-01-29T07:22:39.625Z,200
2019-01-29T07:23:20.230Z,212
2019-01-29T07:24:01.058Z,252
2019-01-29T07:24:42.835Z,264
2019-01-29T07:25:22.227Z,268
2019-01-29T07:26:02.789Z,260
2019-01-29T07:26:43.340Z,288
2019-01-29T07:27:23.898Z,316
2019-01-29T07:28:04.496Z,332
2019-01-29T07:28:45.057Z,388
2019-01-29T07:29:25.638Z,388
2019-01-29T07:30:06.233Z,396
2019-01-29T07:30:46.801Z,372
2019-01-29T07:31:27.360Z,444
2019-01-29T07:32:07.946Z,484
2019-01-29T07:32:48.498Z,520
2019-01-29T07:33:29.071Z,540
2019-01-29T07:34:09.648Z,588
2019-01-29T07:34:50.298Z,576
2019-01-29T07:35:30.811Z,576
2019-01-29T07:36:11.384Z,620
2019-01-29T07:36:51.947Z,616
2019-01-29T07:37:32.523Z,664
2019-01-29T07:38:13.109Z,656
2019-01-29T07:38:53.676Z,732
2019-01-29T07:39:34.237Z,644
2019-01-29T07:40:14.916Z,676
2019-01-29T07:40:55.405Z,692
2019-01-29T07:41:35.966Z,736
2019-01-29T07:42:16.540Z,740
2019-01-29T07:42:57.128Z,724
2019-01-29T07:43:37.686Z,724
2019-01-29T07:44:18.275Z,732
2019-01-29T07:44:58.818Z,1008
2019-01-29T07:45:39.370Z,1380
2019-01-29T07:46:19.921Z,1672
2019-01-29T07:47:00.468Z,1628
2019-01-29T07:47:41.016Z,1852
2019-01-29T07:48:21.865Z,2128
2019-01-29T07:49:02.453Z,2060
2019-01-29T07:49:43.023Z,2264
2019-01-29T07:50:23.582Z,2348
2019-01-29T07:51:04.145Z,2196
2019-01-29T07:51:44.746Z,2424
2019-01-29T07:52:25.315Z,2208
2019-01-29T07:53:05.876Z,1712
2019-01-29T07:53:46.452Z,1500
2019-01-29T07:54:33.153Z,1356
2019-01-29T07:55:07.567Z,1364
2019-01-29T07:55:48.126Z,1408
2019-01-29T07:56:28.675Z,1404
2019-01-29T07:57:09.234Z,1464
2019-01-29T07:57:49.783Z,1352
2019-01-29T07:58:30.371Z,1276
2019-01-29T07:59:10.940Z,1220
2019-01-29T07:59:51.496Z,916
2019-01-29T08:00:32.073Z,848
2019-01-29T08:01:12.638Z,976
2019-01-29T08:01:53.197Z,916
2019-01-29T08:02:33.808Z,924
2019-01-29T08:03:14.364Z,892
2019-01-29T08:03:54.919Z,924
2019-01-29T08:04:35.474Z,948
2019-01-29T08:05:16.038Z,1192
2019-01-29T08:05:56.591Z,1368
2019-01-29T08:06:37.141Z,1328
2019-01-29T08:07:17.707Z,1112
2019-01-29T08:07:58.274Z,1132
2019-01-29T08:08:38.817Z,1288
2019-01-29T08:09:19.372Z,1556
2019-01-29T08:09:59.941Z,1804
2019-01-29T08:10:40.520Z,1856
2019-01-29T08:11:21.096Z,1612
2019-01-29T08:12:01.649Z,2000
2019-01-29T08:12:42.253Z,3184
2019-01-29T08:13:22.813Z,2392
2019-01-29T08:14:03.501Z,1652
2019-01-29T08:14:44.114Z,1600
2019-01-29T08:15:24.824Z,1352
2019-01-29T08:16:05.385Z,1328
2019-01-29T08:16:45.934Z,1412
2019-01-29T08:17:26.643Z,1640
2019-01-29T08:18:07.203Z,1048
2019-01-29T08:18:47.769Z,844
2019-01-29T08:19:28.323Z,868
2019-01-29T08:20:08.879Z,980
2019-01-29T08:20:49.440Z,932
2019-01-29T08:21:29.996Z,924
2019-01-29T08:22:10.563Z,848
2019-01-29T08:22:51.114Z,728
2019-01-29T08:23:31.688Z,572
2019-01-29T08:24:12.260Z,544
2019-01-29T08:25:00.999Z,512
2019-01-29T08:25:33.384Z,456
2019-01-29T08:26:14.188Z,492
2019-01-29T08:26:54.971Z,516
2019-01-29T08:27:35.529Z,536
2019-01-29T08:28:16.091Z,628
2019-01-29T08:28:56.651Z,712
2019-01-29T08:29:37.208Z,852
2019-01-29T08:30:17.773Z,792
2019-01-29T08:30:58.359Z,696
2019-01-29T08:31:38.972Z,628
2019-01-29T08:32:19.494Z,584
2019-01-29T08:33:00.073Z,572
2019-01-29T08:33:40.635Z,560
2019-01-29T08:34:21.216Z,620
2019-01-29T08:35:01.769Z,560
2019-01-29T08:35:42.334Z,564
2019-01-29T08:36:22.887Z,536
2019-01-29T08:37:03.449Z,508
2019-01-29T08:37:44.009Z,612
2019-01-29T08:38:24.674Z,772
2019-01-29T08:39:05.286Z,880
2019-01-29T08:39:45.872Z,836
2019-01-29T08:40:27.429Z,948
2019-01-29T08:41:07.996Z,876
2019-01-29T08:41:48.563Z,884
2019-01-29T08:42:29.971Z,976
2019-01-29T08:43:10.532Z,1076
2019-01-29T08:43:51.127Z,1292
2019-01-29T08:44:31.662Z,1076
2019-01-29T08:45:12.218Z,1056
2019-01-29T08:45:54.272Z,824
2019-01-29T08:46:33.659Z,748
2019-01-29T08:47:14.214Z,696
2019-01-29T08:47:54.893Z,676
2019-01-29T08:48:35.448Z,700
2019-01-29T08:49:16.008Z,680
2019-01-29T08:49:56.754Z,704
2019-01-29T08:50:37.433Z,832
2019-01-29T08:51:18.005Z,896
2019-01-29T08:51:58.640Z,876
2019-01-29T08:52:39.181Z,860
2019-01-29T08:53:19.742Z,1068
2019-01-29T08:54:00.376Z,1136
2019-01-29T08:54:40.988Z,1296
2019-01-29T08:55:21.664Z,1284
2019-01-29T08:56:02.257Z,1284
2019-01-29T08:56:42.831Z,1332
2019-01-29T08:57:23.416Z,1352
2019-01-29T08:58:03.988Z,1688
2019-01-29T08:58:44.541Z,1200
2019-01-29T08:59:25.108Z,1272
2019-01-29T09:00:05.785Z,1644
2019-01-29T09:00:46.359Z,1620
2019-01-29T09:01:27.005Z,1960
2019-01-29T09:02:08.184Z,1760
2019-01-29T09:02:48.273Z,1272
2019-01-29T09:03:28.831Z,1156
2019-01-29T09:04:09.388Z,1160
2019-01-29T09:04:49.957Z,1440
2019-01-29T09:05:30.514Z,1996
2019-01-29T09:06:11.070Z,1568
2019-01-29T09:06:51.701Z,1280
2019-01-29T09:07:32.269Z,1444
2019-01-29T09:08:13.179Z,992
2019-01-29T09:08:53.476Z,896
2019-01-29T09:09:34.029Z,900
2019-01-29T09:10:14.647Z,984
2019-01-29T09:10:55.203Z,1016
2019-01-29T09:11:35.762Z,880
2019-01-29T09:12:16.328Z,800
2019-01-29T09:12:56.898Z,812
2019-01-29T09:13:37.577Z,892
2019-01-29T09:14:18.091Z,936
2019-01-29T09:14:58.670Z,916
2019-01-29T09:15:39.244Z,992
2019-01-29T09:16:19.810Z,1012
2019-01-29T09:17:00.368Z,1164
2019-01-29T09:17:40.999Z,1056
2019-01-29T09:18:21.578Z,1008
2019-01-29T09:19:02.121Z,924
2019-01-29T09:19:42.679Z,780
2019-01-29T09:20:23.237Z,708
2019-01-29T09:21:03.802Z,728
2019-01-29T09:21:44.366Z,820
2019-01-29T09:22:24.939Z,892
2019-01-29T09:23:05.748Z,960
2019-01-29T09:23:46.315Z,1092
2019-01-29T09:24:26.869Z,1008
2019-01-29T09:25:07.459Z,1048
2019-01-29T09:25:48.018Z,1152
2019-01-29T09:26:28.578Z,1196
2019-01-29T09:27:11.541Z,1156
2019-01-29T09:27:52.936Z,1240
2019-01-29T09:28:33.495Z,1232
2019-01-29T09:29:17.717Z,1292
2019-01-29T09:29:54.627Z,1268
2019-01-29T09:30:35.181Z,1380
2019-01-29T09:31:15.723Z,1332
2019-01-29T09:31:56.272Z,1128
2019-01-29T09:32:36.829Z,1032
2019-01-29T09:33:17.387Z,956
2019-01-29T09:33:57.981Z,980
2019-01-29T09:34:38.550Z,1104
2019-01-29T09:35:19.100Z,1076
2019-01-29T09:35:59.660Z,996
2019-01-29T09:36:40.233Z,896
2019-01-29T09:37:20.768Z,892
2019-01-29T09:38:01.331Z,848
2019-01-29T09:38:41.874Z,1028
2019-01-29T09:39:22.457Z,1292
2019-01-29T09:40:03.026Z,1624
2019-01-29T09:40:43.976Z,1636
2019-01-29T09:41:24.531Z,1472
2019-01-29T09:42:06.090Z,1592
2019-01-29T09:42:47.463Z,1616
2019-01-29T09:43:28.009Z,1568
2019-01-29T09:44:08.581Z,1376
2019-01-29T09:44:49.243Z,1408
2019-01-29T09:45:29.795Z,1680
2019-01-29T09:46:10.363Z,1964
2019-01-29T09:46:50.938Z,1812
2019-01-29T09:47:31.484Z,1908
2019-01-29T09:48:12.046Z,1872
2019-01-29T09:48:52.888Z,1864